Etusivu
METAR-TAF:

METAR-TAF

Lentoasemat :

Gran Canaria, Espanja

Gran Canarian lentoasema

Leveyspiiri: 27-56N, Pituuspiiri: 015-23W, korkeus merenpinnasta: 23 m

Tämänhetkinen sää

Tämä raportti tehtiin 20 minuuttia sitten, kello 09.30 UTC
Tuuli 14 kn pohjoisesta
Lämpötila 24°C
Kosteus 74%
Ilmanpaine 1022 hPa
Näkyvyys 10 km tai enemmän
Hajanaisia pilviä 4000 ft:n korkeudessa
Hajonneita pilviä 5000 ft:n korkeudessa

METAR: GCLP 220930Z 01014KT 9999 SCT040 BKN050 24/19 Q1022 NOSIG

Aika: 10:50 (09:50 UTC)

Sääennuste

Tämä raportti tehtiin 1 tunti ja 50 minuuttia sitten, kello 08.00 UTC
Ennuste voimassa 22. päivästä klo 09 UTC - 23. päivään klo 09 UTC
Tuuli 17 kn pohjoisesta/koillisesta
Näkyvyys 10 km tai enemmän
Hajonneita pilviä 3000 ft:n korkeudessa
Todennäköisyys 40% :
Ajoittain
22. päivästä klo 09 UTC - 22. päivään klo 14 UTC
tihkusadetta

TAF: GCLP 220800Z 2209/2309 03017KT 9999 BKN030 TX26/2213Z TN21/2306Z PROB40 TEMPO 2209/2214 DZ

Säähavainnot ja -ennusteet yli 4000 lentoasemalta (METAR- ja TAF-raportit).

Käytössä olevat sääasemat on merkitty karttaan keltaisilla ja punaisilla pisteillä.

Aseta hiiri pisteen päälle nähdäksesi sääaseman nimen.

Klikkaa sitten nähdäksesi säähavainnot ja -ennusteet.

Kartan vaihtaminen: klikkaa mustalla rastilla varustettuja vihreitä pisteitä, niin voit zoomata sisään; viivalla varustettua vihreää pistettä, niin voit zoomata ulos tai vihreitä nuolia, niin pääset viereisille kartoille.


METAR-TAF: